Highlands Peak, California Weather observations

Data are for observation ending at time listed.
 Day   Time    Ave.   Ave.  Ave.  Vector   Max.   Stn.    Total    Solar   Ave.  
  of    of     Air    Rel.  Wind   Wind    Wind   Baro.  Precip.   Rad.    Soil  
Year   Day     Temp.  Hum.  Speed  Dir.    Gust   Pres.                    Temp. 
2015   (PST)    F      %     mph   deg.    mph     mb.     in.     W/m2     F   
------------------------------------------------------------------------------
 242    0:00   66.5    34    2.9    30      6.5   929.4    0.00       0    85.4
 242    0:10   65.6    36    2.5    82      4.8   929.4    0.00       0    85.1
 242    0:20   65.0    38    1.8    72      3.3   929.4    0.00       0    84.9
 242    0:30   65.2    36    2.2    63      5.6   929.5    0.00       0    84.8
 242    0:40   64.9    36    3.0    90      5.2   929.5    0.00       0    84.7
 242    0:50   66.2    34    2.3   135      3.1   929.4    0.00       0    84.6
 242    1:00   66.3    39    1.9   221      2.6   929.4    0.00       0    84.2
 242    1:10   65.9    47    1.1   235      1.8   929.4    0.00       0    83.9
 242    1:20   65.7    46    0.9   229      1.2   929.3    0.00       0    83.7
 242    1:30   65.7    47    0.3   230      1.2   929.3    0.00       0    83.4
 242    1:40   65.9    47    0.1   110      1.2   929.3    0.00       0    83.3
 242    1:50   66.1    44    1.8   101      3.0   929.3    0.00       0    83.1
 242    2:00   65.9    38    4.0    96      4.8   929.3    0.00       0    83.0
 242    2:10   65.8    38    4.2   101      5.3   929.3    0.00       0    83.0
 242    2:20   66.1    39    3.5   134      3.8   929.3    0.00       0    82.8
 242    2:30   65.8    43    3.6   126      4.2   929.3    0.00       0    82.8
 242    2:40   65.8    37    3.0   100      4.8   929.3    0.00       0    82.5
 242    2:50   66.6    39    2.0   139      3.1   929.3    0.00       0    82.3
 242    3:00   66.9    41    1.3   219      2.5   929.4    0.00       0    81.9
 242    3:10   66.5    43    1.2   187      1.9   929.4    0.00       0    81.7
 242    3:20   65.7    43    2.8   133      3.5   929.3    0.00       0    81.6
 242    3:30   65.7    44    2.8   134      3.8   929.3    0.00       0    81.6
 242    3:40   65.8    42    2.2   115      3.1   929.3    0.00       0    81.4
 242    3:50   65.9    38    2.1   107      2.6   929.4    0.00       0    81.1
 242    4:00   65.9    37    1.6   110      2.7   929.4    0.00       0    80.8
 242    4:10   66.1    36    1.5   110      2.6   929.4    0.00       0    80.7
 242    4:20   66.1    38    0.4   113      1.5   929.3    0.00       0    80.5
 242    4:30   65.8    41    0.4   120      1.2   929.2    0.00       0    80.3
 242    4:40   65.4    43    2.0   282      2.6   929.2    0.00       0    80.0
 242    4:50   64.9    40    1.0    43      3.0   929.2    0.00       0    79.8
 242    5:00   64.5    41    1.3    52      3.5   929.3    0.00       0    79.7
 242    5:10   63.4    42    4.7    53      7.7   929.4    0.00       0    79.6
 242    5:20   62.4    44    5.3    67      6.4   929.5    0.00       0    79.5
 242    5:30   62.3    46    5.3    56      6.1   929.6    0.00       1    79.3
 242    5:40   62.3    46    2.7    11      4.4   929.7    0.00       2    79.1
 242    5:50   63.3    44    2.9   360      4.1   929.8    0.00       5    79.0
 242    6:00   63.3    41    3.3    63      4.5   930.0    0.00       7    78.9
 242    6:10   62.9    41    2.5    70      3.4   930.1    0.00      11    78.7
 242    6:20   62.9    43    1.2    32      2.3   930.2    0.00      16    78.6
 242    6:30   62.8    44    1.5   290      2.4   930.3    0.00      48    78.5
 242    6:40   64.1    37    0.6   136      1.5   930.4    0.00     195    78.2
 242    6:50   66.5    37    0.8    95      2.8   930.4    0.00     242    78.1
 242    7:00   66.0    39    3.2    45      4.4   930.6    0.00     282    77.8
 242    7:10   66.3    38    2.7    70      4.8   930.6    0.00     322    77.6
 242    7:20   66.9    37    1.6   274      2.5   930.7    0.00     362    77.4
 242    7:30   65.9    38    1.1   264      1.9   930.8    0.00     400    77.2
 242    7:40   65.0    35    1.6   254      2.1   930.8    0.00     437    77.0
 242    7:50   65.4    34    2.3   274      4.3   930.9    0.00     474    76.9
 242    8:00   65.8    32    2.7   296      4.5   930.9    0.00     511    76.8
 242    8:10   66.5    32    1.6   299      2.6   930.9    0.00     548    76.8
 242    8:20   67.2    32    1.4   274      3.0   930.9    0.00     583    76.7
 242    8:30   67.5    30    2.1   259      3.6   931.0    0.00     619    76.7
 242    8:40   67.8    28    3.4   260      4.2   931.0    0.00     651    76.6
 242    8:50   67.5    32    3.7   252      4.7   931.1    0.00     683    76.6
 242    9:00   67.3    33    3.4   258      4.4   931.2    0.00     715    76.6
 242    9:10   67.4    35    3.9   262      6.8   931.3    0.00     742    76.7
 242    9:20   66.9    42    4.7   268      7.0   931.3    0.00     769    76.8
 242    9:30   67.0    41    3.5   262      6.3   931.3    0.00     795    76.9
 242    9:40   67.7    41    3.4   271      5.5   931.3    0.00     820    77.0
 242    9:50   69.1    41    2.7   268      4.9   931.3    0.00     842    77.2
 242   10:00   69.7    43    3.2   267      4.9   931.3    0.00     863    77.4
 242   10:10   70.2    44    4.9   267      7.0   931.3    0.00     883    77.6
 242   10:20   70.2    44    5.0   264      7.8   931.3    0.00     903    77.8
 242   10:30   69.2    46    4.5   269      6.9   931.3    0.00     919    78.1
 242   10:40   70.0    45    3.4   278      5.1   931.3    0.00     934    78.3
 242   10:50   71.0    45    3.5   266      6.3   931.3    0.00     947    78.5
 242   11:00   71.6    42    5.2   271      7.9   931.3    0.00     957    78.8
 242   11:10   71.3    41    4.3   271      6.9   931.3    0.00     966    79.1
 242   11:20   72.1    33    4.7   266      7.2   931.2    0.00     976    79.4
 242   11:30   72.4    31    5.3   264      8.2   931.1    0.00     983    79.6
 242   11:40   74.0    28    6.1   274      9.1   931.0    0.00     987    79.9
 242   11:50   74.7    25    6.5   264      9.4   931.0    0.00     990    80.2
 242   12:00   74.8    25    6.4   265      9.1   930.9    0.00     994    80.4
 242   12:10   74.2    24    6.6   264     10.0   930.8    0.00     993    80.8
 242   12:20   75.3    25    5.2   249      9.2   930.7    0.00     991    81.0
 242   12:30   75.8    25    5.8   259      9.2   930.6    0.00     986    81.3
 242   12:40   75.2    28    5.2   268      7.7   930.6    0.00     979    81.7
 242   12:50   75.6    27    4.9   269      8.1   930.5    0.00     969    82.0
 242   13:00   75.7    30    5.4   264      8.6   930.4    0.00     961    82.3
 242   13:10   74.8    30    5.1   262      9.0   930.4    0.00     953    82.7
 242   13:20   75.7    28    5.7   266     10.0   930.3    0.00     935    83.2
 242   13:30   75.8    25    6.1   263      9.6   930.3    0.00     912    83.6
 242   13:40   76.6    22    4.9   265      8.9   930.2    0.00     899    84.1
 242   13:50   76.0    22    5.8   266     10.0   930.2    0.00     882    84.5
 242   14:00   77.6    20    5.5   256      9.3   930.2    0.00     864    85.0
 242   14:10   78.0    18    4.9   247      9.1   930.1    0.00     821    85.4
 242   14:20   77.8    20    6.2   266     10.5   929.9    0.00     820    85.8
 242   14:30   78.2    19    5.9   256      9.1   929.8    0.00     796    86.3
 242   14:40   77.4    18    5.6   262      8.6   929.7    0.00     771    86.7
 242   14:50   77.4    18    4.4   262      8.3   929.7    0.00     744    87.1
 242   15:00   78.3    17    5.5   273      8.7   929.6    0.00     718    87.4
 242   15:10   77.8    20    4.7   259      7.7   929.5    0.00     688    87.8
 242   15:20   79.5    18    4.7   257      9.1   929.4    0.00     659    88.1
 242   15:30   78.6    18    4.0   268      7.5   929.4    0.00     625    88.4
 242   15:40   78.2    20    4.7   252      8.2   929.3    0.00     590    88.8
 242   15:50   79.5    22    4.5   274      6.9   929.2    0.00     557    89.0
 242   16:00   79.9    21    3.7   281      6.5   929.1    0.00     525    89.3
 242   16:10   79.7    23    4.1   281      7.5   929.1    0.00     491    89.7
 242   16:20   79.8    24    4.0   277      7.2   929.0    0.00     453    89.9
 242   16:30   79.7    22    4.0   213      7.1   929.0    0.00     417    90.1
 242   16:40   79.2    22    3.2   214      6.4   928.9    0.00     379    90.3
 242   16:50   78.8    24    2.9   177      4.9   928.8    0.00     342    90.4
 242   17:00   78.5    24    3.1   199      5.6   928.7    0.00     305    90.6
 242   17:10   78.5    22    3.3   206      5.6   928.6    0.00     267    90.7
 242   17:20   78.2    23    2.4   211      4.1   928.5    0.00     230    90.8
 242   17:30   78.1    29    2.5   266      4.3   928.4    0.00     196    90.9
 242   17:40   77.4    27    2.6   294      4.7   928.4    0.00     164    91.0
 242   17:50   76.6    29    2.7   291      6.4   928.2    0.00     133    91.1
 242   18:00   76.1    29    2.2   288      4.7   928.2    0.00     104    91.1
 242   18:10   75.7    24    3.8   339      7.9   928.1    0.00      76    91.1
 242   18:20   75.0    22    4.9     0      7.2   928.0    0.00      51    91.1
 242   18:30   74.6    20    6.0    20     10.3   928.0    0.00      27    91.0
 242   18:40   73.8    19    6.6    51      9.3   927.9    0.00      10    90.9
 242   18:50   73.5    17    6.4    52      9.1   927.8    0.00       3    90.8
 242   19:00   73.3    16    7.8    55     11.3   927.8    0.00       1    90.6
 242   19:10   73.4    16    6.5    68      9.4   927.8    0.00       0    90.5
 242   19:20   73.1    15    6.5    80      8.6   927.9    0.00       0    90.3
 242   19:30   73.6    14    6.7    86      9.2   928.0    0.00       0    90.1
 242   19:40   73.4    14    7.2    90      9.8   928.1    0.00       0    89.9
 242   19:50   73.2    14    8.2    88     12.1   928.1    0.00       0    89.6
 242   20:00   73.1    16    8.2    98     12.2   928.1    0.00       0    89.4
 242   20:10   73.0    16    8.2    92     11.0   928.2    0.00       0    89.3
 242   20:20   72.9    16    7.2    90     12.2   928.2    0.00       0    89.0
 242   20:30   73.0    16    6.5    84      9.0   928.2    0.00       0    88.6
 242   20:40   73.2    17    8.3    97     11.1   928.2    0.00       0    88.5
 242   20:50   73.0    17    8.2    99     11.9   928.2    0.00       0    88.3
 242   21:00   73.1    17    7.0    90      9.9   928.2    0.00       0    88.0
 242   21:10   73.2    16    7.4    95     10.7   928.2    0.00       0    87.9
 242   21:20   73.0    17    7.3    92     10.2   928.2    0.00       0    87.5
 242   21:30   72.9    17    7.8    99     12.2   928.1    0.00       0    87.3
 242   21:40   72.8    18    7.8   102     11.5   928.0    0.00       0    87.2
 242   21:50   72.7    19    7.1   101     10.2   928.0    0.00       0    87.1
 242   22:00   73.0    19    2.7   149      7.5   928.0    0.00       0    86.8
 242   22:10   73.0    18    3.7   254      4.8   928.1    0.00       0    86.3
 242   22:20   72.1    20    3.0   274      3.8   928.1    0.00       0    85.9
 242   22:30   71.7    21    1.8   316      3.4   928.0    0.00       0    85.6
 242   22:40   72.3    20    1.8   302      3.2   928.0    0.00       0    85.4
 242   22:50   71.0    22    4.1    66      5.8   928.0    0.00       0    85.2
 242   23:00   69.7    23    4.6    68      6.4   928.0    0.00       0    85.0
 242   23:10   70.1    22    3.4    77      4.5   928.0    0.00       0    84.8
 242   23:20   70.1    22    1.3   111      2.9   928.1    0.00       0    84.7
 242   23:30   70.5    22    1.5   189      4.0   928.1    0.00       0    84.5
 242   23:40   70.2    22    3.5   185      4.6   928.1    0.00       0    84.2

Return to Highlands Peak graphs page.


Western Regional Climate Center,wrcc@dri.edu